Time;durP1;ratioP1;P1;durP2;ratioP2;P2;SDS_P1;SDS_P2;PMS_P1;PMS_P2;Temp;Humidity;BMP_temperature;BMP_pressure;BME280_temperature;BME280_humidity;BME280_pressure;Samples;Min_cycle;Max_cycle;Signal;HPM_P1;HPM_P2
2022/02/07 05:01:10;;;;;;;4.13;0.90;;;2.50;99.90;;;;;;5691454;23;20502;-66
2022/02/07 05:03:42;;;;;;;0.90;0.90;;;2.50;99.90;;;;;;4957274;28;20440;-64
2022/02/07 05:14:22;;;;;;;3.60;1.17;;;2.40;99.90;;;;;;4957668;29;20419;-65
2022/02/07 05:16:53;;;;;;;5.77;1.20;;;2.40;99.90;;;;;;4956949;28;20550;-66
2022/02/07 05:19:20;;;;;;;6.57;1.27;;;2.40;99.90;;;;;;4957017;29;20486;-66
2022/02/07 05:21:48;;;;;;;2.90;1.00;;;2.40;99.90;;;;;;4956971;29;20482;-66
2022/02/07 05:24:15;;;;;;;3.03;1.50;;;2.30;99.90;;;;;;4956779;29;20552;-65
2022/02/07 05:26:42;;;;;;;2.53;1.63;;;2.30;99.90;;;;;;4956435;28;20465;-65
2022/02/07 05:29:09;;;;;;;1.73;0.80;;;2.40;99.90;;;;;;4956375;29;20463;-66
2022/02/07 05:31:36;;;;;;;6.77;1.40;;;2.40;99.90;;;;;;4956237;29;20482;-65
2022/02/07 05:34:04;;;;;;;6.07;1.80;;;2.50;99.90;;;;;;4956401;28;20463;-65
2022/02/07 05:36:30;;;;;;;6.47;1.27;;;2.50;99.90;;;;;;4956356;29;20460;-66
2022/02/07 05:39:00;;;;;;;4.63;1.47;;;2.50;99.90;;;;;;4955896;29;20903;-64
2022/02/07 05:41:27;;;;;;;2.07;1.00;;;2.60;99.90;;;;;;4956164;29;20534;-65
2022/02/07 05:43:53;;;;;;;2.70;1.00;;;2.70;99.90;;;;;;4956113;29;20466;-65
2022/02/07 05:46:20;;;;;;;7.63;1.40;;;2.70;99.90;;;;;;4956603;29;20509;-65
2022/02/07 05:48:47;;;;;;;3.53;1.37;;;2.70;99.90;;;;;;4956289;29;20468;-66
2022/02/07 05:51:15;;;;;;;4.97;1.30;;;2.70;99.90;;;;;;4955923;29;20487;-65
2022/02/07 05:53:42;;;;;;;3.23;1.10;;;2.70;99.90;;;;;;4956012;29;20460;-65
2022/02/07 05:56:09;;;;;;;5.87;1.00;;;2.70;99.90;;;;;;4956590;29;20459;-65
2022/02/07 05:58:36;;;;;;;5.03;1.47;;;2.70;99.90;;;;;;4956678;29;20514;-64
2022/02/07 06:01:03;;;;;;;1.80;0.90;;;2.70;99.90;;;;;;4956037;29;20494;-65
2022/02/07 06:03:30;;;;;;;4.43;1.43;;;2.70;99.90;;;;;;4956245;29;20456;-66
2022/02/07 06:05:57;;;;;;;5.57;1.57;;;2.70;99.90;;;;;;4955859;29;20487;-65
2022/02/07 06:08:25;;;;;;;3.23;1.80;;;2.70;99.90;;;;;;4955855;29;20460;-65
2022/02/07 06:10:52;;;;;;;6.20;1.50;;;2.80;99.90;;;;;;4955916;29;20479;-65
2022/02/07 06:13:19;;;;;;;4.73;1.80;;;2.80;99.90;;;;;;4955828;29;20459;-65
2022/02/07 06:15:46;;;;;;;5.33;1.40;;;2.90;99.90;;;;;;4955442;28;20927;-65
2022/02/07 06:18:16;;;;;;;11.70;1.90;;;2.90;99.90;;;;;;4956121;29;20456;-65
2022/02/07 06:20:42;;;;;;;4.23;2.00;;;3.00;99.90;;;;;;4956620;29;20483;-65
2022/02/07 06:23:09;;;;;;;2.17;1.20;;;3.00;99.90;;;;;;4956620;28;20456;-64
2022/02/07 06:25:37;;;;;;;3.60;1.07;;;3.00;99.90;;;;;;4956116;29;21017;-64
2022/02/07 06:28:04;;;;;;;2.63;1.20;;;3.00;99.90;;;;;;4957042;29;20466;-67
2022/02/07 06:30:31;;;;;;;4.70;1.67;;;3.00;99.90;;;;;;4960102;28;20560;-64
2022/02/07 06:32:58;;;;;;;4.50;1.60;;;3.20;99.90;;;;;;4961437;29;20458;-64
2022/02/07 06:35:25;;;;;;;8.57;1.30;;;3.40;99.90;;;;;;4963157;29;20538;-65
2022/02/07 06:37:52;;;;;;;3.43;1.30;;;3.50;99.90;;;;;;4962640;29;20464;-65
2022/02/07 06:40:20;;;;;;;5.20;1.50;;;3.60;99.90;;;;;;4962077;29;20436;-65
2022/02/07 06:42:48;;;;;;;2.30;1.23;;;3.60;99.90;;;;;;4961801;29;20546;-65
2022/02/07 06:45:14;;;;;;;3.80;1.00;;;3.70;99.90;;;;;;4962421;29;20475;-65
2022/02/07 06:47:42;;;;;;;1.77;1.27;;;3.80;99.90;;;;;;4967254;29;20455;-65
2022/02/07 06:50:09;;;;;;;1.60;1.17;;;3.80;99.90;;;;;;4970096;28;20543;-66
2022/02/07 06:52:36;;;;;;;4.27;1.07;;;3.70;99.90;;;;;;4963452;28;20454;-66
2022/02/07 06:55:03;;;;;;;5.77;1.70;;;3.80;99.90;;;;;;4962116;28;20456;-66
2022/02/07 06:57:30;;;;;;;2.60;1.03;;;3.90;99.90;;;;;;4960357;29;20455;-64
2022/02/07 07:00:02;;;;;;;2.50;1.10;;;3.90;99.90;;;;;;4960108;29;20456;-67
2022/02/07 07:02:29;;;;;;;1.63;1.37;;;3.90;99.90;;;;;;4959798;29;20487;-65
2022/02/07 07:04:57;;;;;;;2.40;1.13;;;4.00;99.90;;;;;;4959878;29;20838;-67
2022/02/07 07:07:24;;;;;;;2.67;1.40;;;4.10;99.90;;;;;;4959721;29;20548;-66
2022/02/07 07:09:53;;;;;;;3.50;1.50;;;4.10;99.90;;;;;;4961052;29;20459;-66
2022/02/07 07:12:20;;;;;;;5.03;1.37;;;4.10;99.90;;;;;;4961448;28;20476;-66
2022/02/07 07:14:50;;;;;;;2.23;1.17;;;4.10;99.90;;;;;;4960687;29;20451;-66
2022/02/07 07:17:18;;;;;;;5.33;2.37;;;4.10;99.90;;;;;;4959714;29;20444;-65
2022/02/07 07:19:45;;;;;;;8.23;1.73;;;4.00;99.90;;;;;;4960016;29;20443;-66
2022/02/07 07:22:14;;;;;;;4.00;1.47;;;4.20;99.90;;;;;;4959424;29;20486;-66
2022/02/07 07:24:42;;;;;;;3.97;1.77;;;4.10;99.90;;;;;;4959390;28;20483;-65
2022/02/07 07:27:09;;;;;;;5.20;1.17;;;4.00;99.90;;;;;;4959343;29;20459;-65
2022/02/07 07:29:39;;;;;;;6.47;1.67;;;3.90;99.90;;;;;;4959328;29;20460;-66
2022/02/07 07:32:08;;;;;;;3.33;1.40;;;3.80;99.90;;;;;;4959221;29;20484;-65
2022/02/07 07:34:36;;;;;;;3.33;1.40;;;3.80;99.90;;;;;;4959613;28;20459;-66
2022/02/07 07:37:03;;;;;;;4.47;1.47;;;3.70;99.90;;;;;;4958870;28;20969;-66
2022/02/07 07:39:30;;;;;;;9.03;1.50;;;3.90;99.90;;;;;;4958392;29;20456;-66
2022/02/07 07:41:57;;;;;;;3.60;1.33;;;4.20;99.90;;;;;;4957888;28;21010;-66
2022/02/07 07:44:29;;;;;;;1.23;1.00;;;4.50;99.90;;;;;;4958322;29;20459;-65
2022/02/07 07:46:58;;;;;;;6.97;1.73;;;5.00;99.90;;;;;;4959513;29;20441;-67
2022/02/07 07:49:36;;;;;;;3.70;1.40;;;5.60;99.90;;;;;;4958948;29;20997;-67
2022/02/07 07:52:09;;;;;;;9.57;1.57;;;6.30;99.90;;;;;;4959542;29;20984;-66
2022/02/07 07:54:54;;;;;;;3.17;1.83;;;7.00;99.90;;;;;;4958656;29;20459;-66
2022/02/07 08:02:53;;;;;;;5.03;1.67;;;9.30;99.90;;;;;;4958590;29;20446;-66
2022/02/07 08:05:31;;;;;;;3.03;1.23;;;9.00;99.90;;;;;;4958557;29;20493;-65
2022/02/07 08:08:08;;;;;;;4.07;1.70;;;8.50;99.90;;;;;;4958494;29;20437;-66
2022/02/07 08:10:53;;;;;;;5.80;1.77;;;7.80;99.90;;;;;;4958319;29;20478;-66
2022/02/07 08:13:20;;;;;;;4.43;1.70;;;7.20;99.90;;;;;;4958576;28;20442;-66
2022/02/07 08:15:47;;;;;;;7.20;2.10;;;7.00;99.90;;;;;;4958343;29;20485;-66
2022/02/07 08:18:14;;;;;;;2.53;0.93;;;7.00;99.90;;;;;;4958350;29;20507;-66
2022/02/07 08:20:40;;;;;;;5.27;2.43;;;7.80;99.90;;;;;;4957749;29;20479;-66
2022/02/07 08:23:10;;;;;;;7.40;1.70;;;8.70;99.90;;;;;;4959361;29;20442;-66
2022/02/07 08:25:37;;;;;;;3.80;1.47;;;9.10;99.90;;;;;;4959746;29;20469;-66
2022/02/07 08:28:04;;;;;;;4.07;1.70;;;9.00;99.90;;;;;;4958927;29;20465;-66
2022/02/07 08:30:31;;;;;;;5.07;1.60;;;8.80;99.90;;;;;;4958131;29;20822;-66
2022/02/07 08:33:00;;;;;;;4.13;1.40;;;8.50;99.90;;;;;;4959519;29;20493;-66
2022/02/07 08:35:26;;;;;;;4.17;1.10;;;8.40;99.90;;;;;;4957485;29;20464;-66
2022/02/07 08:37:53;;;;;;;5.73;1.70;;;7.90;99.90;;;;;;4957120;29;20471;-66
2022/02/07 08:40:22;;;;;;;3.43;1.33;;;8.10;99.90;;;;;;4957487;29;20447;-67
2022/02/07 08:42:49;;;;;;;2.70;1.30;;;9.10;99.90;;;;;;4957265;29;20485;-68
2022/02/07 08:45:17;;;;;;;2.60;1.60;;;10.00;99.90;;;;;;4957112;29;20493;-67
2022/02/07 08:47:44;;;;;;;2.03;1.60;;;10.90;99.90;;;;;;4957104;29;20453;-68
2022/02/07 08:50:12;;;;;;;5.57;1.77;;;12.30;99.90;;;;;;4957032;29;20460;-68
2022/02/07 08:52:41;;;;;;;5.53;1.90;;;13.10;99.90;;;;;;4956598;28;20578;-68
2022/02/07 08:55:12;;;;;;;5.30;1.73;;;14.20;99.90;;;;;;4958475;28;20456;-73
2022/02/07 08:57:44;;;;;;;2.63;1.57;;;14.80;99.60;;;;;;4957633;29;20444;-68
2022/02/07 09:00:17;;;;;;;3.43;1.70;;;14.50;99.20;;;;;;4956888;28;20480;-68
2022/02/07 09:03:09;;;;;;;4.53;1.93;;;13.50;98.30;;;;;;4956507;28;20937;-69
2022/02/07 09:05:43;;;;;;;3.23;1.40;;;12.90;99.60;;;;;;4956649;29;20480;-68
2022/02/07 09:08:23;;;;;;;3.40;1.20;;;11.60;99.90;;;;;;4956692;29;20450;-68
2022/02/07 09:10:52;;;;;;;3.60;1.53;;;10.90;99.90;;;;;;4956535;29;20483;-67
2022/02/07 09:13:20;;;;;;;6.50;2.07;;;10.00;99.90;;;;;;4956632;29;20455;-67
2022/02/07 09:16:15;;;;;;;4.47;1.93;;;9.40;99.90;;;;;;4956579;29;20459;-67
2022/02/07 09:18:44;;;;;;;9.27;2.00;;;8.70;99.90;;;;;;4956428;28;20478;-68
2022/02/07 09:21:12;;;;;;;2.70;1.73;;;8.20;99.90;;;;;;4956501;29;20479;-67
2022/02/07 09:23:40;;;;;;;4.67;2.00;;;7.70;99.90;;;;;;4957125;28;20545;-68
2022/02/07 09:26:07;;;;;;;3.80;2.40;;;7.60;99.90;;;;;;4956096;29;20486;-69
2022/02/07 09:28:35;;;;;;;3.70;1.37;;;7.70;99.90;;;;;;4956397;29;20460;-68
2022/02/07 09:31:02;;;;;;;3.27;1.73;;;7.60;99.90;;;;;;4956253;29;20482;-68
2022/02/07 09:33:29;;;;;;;5.17;1.70;;;7.50;99.90;;;;;;4956404;29;20489;-67
2022/02/07 09:35:56;;;;;;;3.50;1.60;;;7.80;99.90;;;;;;4956167;29;20444;-68
2022/02/07 09:38:23;;;;;;;5.60;1.93;;;8.80;99.90;;;;;;4956294;28;20468;-67
2022/02/07 09:40:53;;;;;;;6.93;1.47;;;9.00;99.90;;;;;;4956304;29;20490;-67
2022/02/07 09:43:20;;;;;;;8.53;1.90;;;9.00;99.90;;;;;;4955954;29;20943;-69
2022/02/07 09:45:50;;;;;;;3.10;1.40;;;8.90;99.90;;;;;;4956056;29;20540;-69
2022/02/07 09:48:19;;;;;;;4.00;2.20;;;8.80;99.90;;;;;;4956048;29;20462;-67
2022/02/07 09:50:47;;;;;;;4.77;1.90;;;8.80;99.90;;;;;;4956048;29;20513;-67
2022/02/07 09:53:13;;;;;;;3.80;2.70;;;8.60;99.90;;;;;;4955976;29;20459;-68
2022/02/07 09:55:40;;;;;;;9.00;1.50;;;8.60;99.90;;;;;;4957452;29;20461;-67
2022/02/07 09:58:07;;;;;;;4.30;2.33;;;8.30;99.90;;;;;;4956849;29;20860;-67
2022/02/07 10:00:36;;;;;;;8.53;2.27;;;8.30;99.90;;;;;;4955984;29;20528;-68
2022/02/07 10:03:12;;;;;;;7.00;2.00;;;8.60;99.90;;;;;;4957686;28;20448;-67
2022/02/07 10:05:48;;;;;;;8.57;1.80;;;8.70;99.90;;;;;;4958049;29;20463;-67
2022/02/07 10:08:29;;;;;;;7.40;1.63;;;8.70;99.90;;;;;;4958351;28;20533;-67
2022/02/07 10:11:08;;;;;;;4.13;1.77;;;8.50;99.90;;;;;;4957459;29;20484;-67
2022/02/07 10:13:44;;;;;;;6.23;2.03;;;8.50;99.90;;;;;;4955760;29;20446;-68
2022/02/07 10:16:30;;;;;;;8.13;1.97;;;8.40;99.90;;;;;;4955861;29;20459;-68
2022/02/07 10:19:17;;;;;;;5.67;2.07;;;8.30;99.90;;;;;;4955658;29;20447;-68
2022/02/07 10:38:37;;;;;;;8.20;2.30;;;7.60;99.90;;;;;;4953335;29;20879;-67
2022/02/07 10:41:28;;;;;;;3.67;1.27;;;7.80;99.90;;;;;;4955877;29;20498;-67
2022/02/07 10:44:03;;;;;;;9.30;2.10;;;7.80;99.90;;;;;;4955825;29;20465;-68
2022/02/07 10:46:34;;;;;;;6.23;1.80;;;8.00;99.90;;;;;;4956316;29;20474;-69
2022/02/07 10:49:08;;;;;;;2.23;1.30;;;8.40;99.90;;;;;;4956350;29;20441;-69
2022/02/07 10:51:37;;;;;;;4.63;1.50;;;8.50;99.90;;;;;;4957382;29;20584;-68
2022/02/07 10:54:06;;;;;;;5.90;2.43;;;8.70;99.90;;;;;;4954980;29;20950;-67
2022/02/07 10:56:37;;;;;;;6.37;1.53;;;8.50;99.90;;;;;;4955276;28;20460;-67
2022/02/07 10:59:07;;;;;;;2.80;1.20;;;8.30;99.90;;;;;;4955268;29;20454;-68
2022/02/07 11:01:54;;;;;;;5.17;1.60;;;8.20;99.90;;;;;;4954843;28;20919;-68
2022/02/07 11:04:27;;;;;;;2.93;1.40;;;8.10;99.90;;;;;;4955140;29;20437;-69
2022/02/07 11:07:01;;;;;;;4.70;1.90;;;7.80;99.90;;;;;;4954706;29;20466;-69
2022/02/07 11:09:38;;;;;;;6.83;1.80;;;7.70;99.90;;;;;;4955148;29;20467;-69
2022/02/07 11:15:08;;;;;;;5.40;1.53;;;7.50;99.90;;;;;;4955295;28;20445;-69
2022/02/07 11:17:56;;;;;;;4.37;1.63;;;7.50;99.90;;;;;;4958872;28;20544;-69
2022/02/07 11:23:28;;;;;;;3.27;1.43;;;7.10;99.90;;;;;;4935247;29;20458;-69
2022/02/07 11:26:00;;;;;;;4.70;1.83;;;7.00;99.90;;;;;;4960607;29;20550;-68
2022/02/07 11:28:28;;;;;;;7.80;2.00;;;7.00;99.90;;;;;;4960573;29;20830;-68
2022/02/07 11:30:56;;;;;;;4.47;1.57;;;6.90;99.90;;;;;;4958848;28;20487;-69
2022/02/07 11:33:38;;;;;;;7.50;1.67;;;6.80;99.90;;;;;;4958648;29;20459;-69
2022/02/07 11:36:10;;;;;;;5.07;1.60;;;6.70;99.90;;;;;;4958634;29;20441;-68
2022/02/07 11:38:56;;;;;;;11.23;1.80;;;6.60;99.90;;;;;;4957923;29;20991;-69
2022/02/07 11:41:23;;;;;;;7.40;1.90;;;6.50;99.90;;;;;;4958561;29;20530;-68
2022/02/07 11:43:49;;;;;;;6.80;1.63;;;6.60;99.90;;;;;;4958415;29;20511;-69
2022/02/07 11:46:17;;;;;;;5.30;2.10;;;6.50;99.90;;;;;;4958152;29;20493;-68
2022/02/07 11:48:45;;;;;;;7.93;2.50;;;6.60;99.90;;;;;;4957629;29;20812;-71
2022/02/07 11:51:14;;;;;;;5.10;1.83;;;6.50;99.90;;;;;;4958202;29;20484;-68
2022/02/07 11:53:46;;;;;;;5.83;2.00;;;6.60;99.90;;;;;;4958127;29;20465;-68
2022/02/07 11:56:20;;;;;;;5.30;2.23;;;6.50;99.90;;;;;;4958242;28;20506;-69
2022/02/07 11:59:11;;;;;;;6.70;1.57;;;6.50;99.90;;;;;;4957884;29;20915;-68
2022/02/07 12:01:54;;;;;;;6.67;2.70;;;6.60;99.90;;;;;;4958300;29;20494;-68
2022/02/07 12:04:26;;;;;;;4.37;1.73;;;6.50;99.90;;;;;;4958103;29;20459;-68
2022/02/07 12:07:15;;;;;;;6.53;2.10;;;6.50;99.90;;;;;;4957730;29;20524;-69
2022/02/07 12:10:25;;;;;;;5.87;2.13;;;6.30;99.90;;;;;;4958266;29;20507;-68
2022/02/07 12:12:52;;;;;;;4.80;2.00;;;6.40;99.90;;;;;;4957394;29;20456;-68
2022/02/07 12:15:27;;;;;;;9.30;2.60;;;6.40;99.90;;;;;;4957727;29;20465;-68
2022/02/07 12:17:56;;;;;;;3.77;1.50;;;6.50;99.90;;;;;;4957653;29;20437;-68
2022/02/07 12:20:25;;;;;;;3.60;2.10;;;6.60;99.90;;;;;;4957467;28;20925;-68
2022/02/07 12:22:55;;;;;;;5.03;2.17;;;6.70;99.90;;;;;;4957511;29;20455;-68
2022/02/07 12:25:25;;;;;;;8.50;2.03;;;6.70;99.90;;;;;;4957458;29;20462;-68
2022/02/07 12:27:52;;;;;;;4.67;2.37;;;6.90;99.90;;;;;;4957427;28;20865;-67
2022/02/07 12:30:30;;;;;;;6.40;2.33;;;7.00;99.90;;;;;;4957418;29;20458;-69
2022/02/07 12:32:57;;;;;;;3.77;1.97;;;7.10;99.90;;;;;;4957503;29;20445;-69
2022/02/07 12:35:25;;;;;;;5.23;1.97;;;7.20;99.90;;;;;;4957772;29;20459;-69
2022/02/07 12:37:52;;;;;;;3.57;2.50;;;7.20;99.90;;;;;;4958218;28;20508;-69
2022/02/07 12:40:20;;;;;;;5.93;1.87;;;7.30;99.90;;;;;;4958143;29;20460;-68
2022/02/07 12:42:51;;;;;;;8.10;2.07;;;7.30;99.90;;;;;;4957528;29;20487;-69
2022/02/07 12:45:23;;;;;;;4.43;1.83;;;7.10;99.90;;;;;;4957252;29;20939;-68
2022/02/07 12:47:51;;;;;;;8.17;1.90;;;7.10;99.90;;;;;;4957541;28;20466;-69
2022/02/07 12:50:20;;;;;;;5.50;1.53;;;7.00;99.90;;;;;;4956661;29;20969;-69
2022/02/07 12:52:47;;;;;;;4.43;1.77;;;6.90;99.90;;;;;;4956772;29;20827;-67
2022/02/07 12:55:15;;;;;;;5.67;1.80;;;6.80;99.90;;;;;;4956883;29;20468;-68
2022/02/07 12:57:42;;;;;;;4.90;2.00;;;6.70;99.90;;;;;;4958402;28;20457;-67
2022/02/07 13:00:15;;;;;;;12.77;2.63;;;6.80;99.90;;;;;;4961412;29;20456;-68
2022/02/07 13:02:44;;;;;;;4.20;2.03;;;6.80;99.90;;;;;;4960417;29;20459;-68
2022/02/07 13:05:11;;;;;;;4.33;2.30;;;6.90;99.90;;;;;;4957184;28;20446;-68
2022/02/07 13:07:42;;;;;;;7.60;2.63;;;6.90;99.90;;;;;;4956785;29;21002;-68
2022/02/07 13:10:12;;;;;;;5.70;2.43;;;6.80;99.90;;;;;;4969863;29;20501;-68
2022/02/07 13:12:52;;;;;;;7.33;2.20;;;6.90;99.90;;;;;;4973603;29;20479;-68
2022/02/07 13:15:23;;;;;;;22.43;2.90;;;7.00;99.90;;;;;;4957162;29;20534;-69
2022/02/07 13:17:53;;;;;;;9.03;2.07;;;7.00;99.90;;;;;;4956755;29;20538;-69
2022/02/07 13:20:22;;;;;;;6.00;2.03;;;7.10;99.90;;;;;;4956297;29;20446;-68
2022/02/07 13:23:00;;;;;;;6.07;2.13;;;7.10;99.90;;;;;;4956921;28;20458;-68
2022/02/07 13:25:38;;;;;;;6.63;1.80;;;7.10;99.90;;;;;;4956418;29;20444;-69
2022/02/07 13:28:05;;;;;;;7.97;1.97;;;7.00;99.90;;;;;;4956621;29;20471;-69
2022/02/07 13:30:38;;;;;;;8.10;2.03;;;6.90;99.90;;;;;;4956542;29;20455;-68
2022/02/07 13:33:05;;;;;;;12.40;2.70;;;7.00;99.90;;;;;;4957507;29;20825;-68
2022/02/07 13:35:39;;;;;;;6.30;2.27;;;7.10;99.90;;;;;;4956144;28;20971;-69
2022/02/07 13:38:07;;;;;;;5.60;2.83;;;7.00;99.90;;;;;;4956204;28;20453;-68
2022/02/07 13:40:40;;;;;;;5.53;2.97;;;7.00;99.90;;;;;;4957466;29;20494;-69
2022/02/07 13:43:11;;;;;;;4.70;2.23;;;7.00;99.90;;;;;;4957301;29;20502;-68
2022/02/07 13:45:39;;;;;;;3.10;2.00;;;7.00;99.90;;;;;;4957189;29;20470;-68
2022/02/07 13:48:06;;;;;;;8.40;2.03;;;6.90;99.90;;;;;;4957137;29;20507;-69
2022/02/07 13:50:36;;;;;;;8.30;2.30;;;6.90;99.90;;;;;;4956672;29;20557;-68
2022/02/07 13:53:06;;;;;;;7.70;1.90;;;6.90;99.90;;;;;;4955815;28;20462;-68
2022/02/07 13:55:36;;;;;;;4.27;1.63;;;6.90;99.90;;;;;;4956457;28;20470;-67
2022/02/07 13:58:06;;;;;;;5.30;1.80;;;6.80;99.90;;;;;;4956317;29;20439;-69
2022/02/07 14:00:34;;;;;;;4.73;1.90;;;6.90;99.90;;;;;;4956841;29;20483;-68
2022/02/07 14:03:12;;;;;;;4.20;2.00;;;6.80;99.90;;;;;;4956443;29;20445;-69
2022/02/07 14:05:40;;;;;;;6.27;2.00;;;6.80;99.90;;;;;;4955942;29;20906;-68
2022/02/07 14:08:09;;;;;;;3.70;1.80;;;6.80;99.90;;;;;;4955468;29;20495;-68
2022/02/07 14:10:38;;;;;;;5.40;1.97;;;6.90;99.90;;;;;;4957034;29;20517;-69
2022/02/07 14:13:06;;;;;;;4.37;1.87;;;7.00;99.90;;;;;;4956678;29;20504;-69
2022/02/07 14:15:33;;;;;;;4.50;2.07;;;7.00;99.90;;;;;;4956880;29;20461;-69
2022/02/07 14:18:02;;;;;;;2.37;1.50;;;7.00;99.90;;;;;;4956157;29;20462;-69
2022/02/07 14:20:33;;;;;;;12.63;2.00;;;7.10;99.90;;;;;;4955593;29;20472;-69
2022/02/07 14:23:00;;;;;;;4.17;1.50;;;7.10;99.90;;;;;;4956218;29;20814;-69
2022/02/07 14:25:29;;;;;;;3.77;1.70;;;7.20;99.90;;;;;;4955254;29;20942;-69
2022/02/07 14:27:56;;;;;;;3.97;1.33;;;7.20;99.90;;;;;;4957680;29;20508;-69
2022/02/07 14:30:24;;;;;;;6.13;1.50;;;7.10;99.90;;;;;;4956840;29;20458;-69
2022/02/07 14:32:51;;;;;;;4.60;1.30;;;7.10;99.90;;;;;;4955301;28;20460;-69
2022/02/07 14:35:18;;;;;;;3.50;1.50;;;7.00;99.90;;;;;;4955860;29;20461;-68
2022/02/07 14:37:46;;;;;;;4.50;2.20;;;7.10;99.90;;;;;;4955813;29;20467;-70
2022/02/07 14:40:13;;;;;;;4.97;2.10;;;7.10;99.90;;;;;;4956822;29;20465;-69
2022/02/07 14:42:40;;;;;;;7.03;1.87;;;7.20;99.90;;;;;;4955346;29;20478;-68
2022/02/07 14:45:14;;;;;;;4.23;1.90;;;7.20;99.90;;;;;;4955946;29;20462;-69
2022/02/07 14:47:51;;;;;;;5.30;1.60;;;7.10;99.90;;;;;;4955428;29;20505;-68
2022/02/07 14:50:21;;;;;;;7.23;2.00;;;7.10;99.90;;;;;;4956340;28;20484;-69
2022/02/07 14:52:49;;;;;;;5.33;1.90;;;7.00;99.90;;;;;;4960825;29;20458;-68
2022/02/07 14:55:16;;;;;;;7.43;1.60;;;7.10;99.90;;;;;;4960591;29;20459;-68
2022/02/07 14:57:43;;;;;;;5.13;1.73;;;6.90;99.90;;;;;;4960742;29;20469;-67
2022/02/07 15:00:13;;;;;;;7.43;1.90;;;6.90;99.90;;;;;;4960168;29;20458;-66
2022/02/07 15:02:39;;;;;;;4.13;2.40;;;6.90;99.90;;;;;;4959646;29;20980;-67
2022/02/07 15:05:08;;;;;;;6.77;3.10;;;7.00;99.90;;;;;;4958895;29;20800;-68
2022/02/07 15:07:35;;;;;;;4.63;2.00;;;7.10;99.90;;;;;;4959859;29;20482;-69
2022/02/07 15:10:04;;;;;;;5.70;2.03;;;7.00;99.90;;;;;;4959417;29;20468;-67
2022/02/07 15:12:31;;;;;;;5.57;1.80;;;6.90;99.90;;;;;;4959045;29;20484;-67
2022/02/07 15:14:58;;;;;;;5.87;1.77;;;6.90;99.90;;;;;;4959167;29;20477;-67
2022/02/07 15:17:28;;;;;;;5.77;1.80;;;6.80;99.90;;;;;;4958671;29;20939;-67
2022/02/07 15:19:55;;;;;;;5.70;2.07;;;6.70;99.90;;;;;;4958881;29;20863;-67
2022/02/07 15:22:22;;;;;;;6.33;2.20;;;6.60;99.90;;;;;;4958533;29;20855;-66
2022/02/07 15:24:49;;;;;;;6.40;1.93;;;6.50;99.90;;;;;;4959447;29;20832;-67
2022/02/07 15:27:17;;;;;;;4.93;2.37;;;6.50;99.90;;;;;;4958961;28;20487;-67
2022/02/07 15:29:44;;;;;;;4.33;2.17;;;6.40;99.90;;;;;;4958432;29;20957;-66
2022/02/07 15:32:23;;;;;;;7.53;2.57;;;6.40;99.90;;;;;;4958973;28;20846;-67
2022/02/07 15:34:50;;;;;;;9.83;2.60;;;6.30;99.90;;;;;;4958852;29;20455;-68
2022/02/07 15:37:17;;;;;;;8.27;1.90;;;6.20;99.90;;;;;;4958651;29;20464;-67
2022/02/07 15:39:44;;;;;;;4.80;2.13;;;6.20;99.90;;;;;;4958824;29;20464;-67
2022/02/07 15:42:11;;;;;;;6.13;2.13;;;6.20;99.90;;;;;;4958687;29;20984;-66
2022/02/07 15:44:39;;;;;;;6.23;2.00;;;6.20;99.90;;;;;;4958805;29;20466;-66
2022/02/07 15:47:06;;;;;;;4.90;1.73;;;6.10;99.90;;;;;;4958829;29;20466;-67
2022/02/07 15:49:33;;;;;;;4.47;2.70;;;6.10;99.90;;;;;;4959514;29;20456;-66
2022/02/07 15:52:01;;;;;;;6.93;2.20;;;6.10;99.90;;;;;;4959335;29;20534;-66
2022/02/07 15:54:30;;;;;;;5.17;2.10;;;6.00;99.90;;;;;;4959537;28;20465;-67
2022/02/07 15:56:57;;;;;;;4.53;1.70;;;6.00;99.90;;;;;;4959564;29;20468;-67
2022/02/07 15:59:24;;;;;;;8.77;2.43;;;6.00;99.90;;;;;;4959131;29;20944;-66
2022/02/07 16:01:53;;;;;;;6.90;2.50;;;5.90;99.90;;;;;;4961360;28;20484;-67
2022/02/07 16:04:20;;;;;;;5.60;2.10;;;5.90;99.90;;;;;;4968805;29;20967;-67
2022/02/07 16:06:46;;;;;;;4.40;1.97;;;5.80;99.90;;;;;;4964326;29;20462;-66
2022/02/07 16:09:13;;;;;;;10.10;2.10;;;5.80;99.90;;;;;;4962645;29;20487;-66
2022/02/07 16:11:40;;;;;;;8.30;2.17;;;5.80;99.90;;;;;;4961775;29;20490;-67
2022/02/07 16:14:09;;;;;;;5.20;2.33;;;5.70;99.90;;;;;;4961607;29;20464;-66
2022/02/07 16:16:36;;;;;;;9.57;2.73;;;5.70;99.90;;;;;;4962454;29;20460;-67
2022/02/07 16:19:05;;;;;;;6.40;2.73;;;5.60;99.90;;;;;;4959577;28;20462;-67
2022/02/07 16:21:31;;;;;;;9.77;2.20;;;5.60;99.90;;;;;;4959230;29;20530;-67
2022/02/07 16:23:58;;;;;;;8.10;2.23;;;5.60;99.90;;;;;;4958858;29;20539;-67
2022/02/07 16:26:25;;;;;;;7.97;2.60;;;5.50;99.90;;;;;;4958505;29;20456;-67
2022/02/07 16:28:53;;;;;;;10.43;2.80;;;5.50;99.90;;;;;;4958532;29;20485;-67
2022/02/07 16:31:20;;;;;;;7.40;2.10;;;5.50;99.90;;;;;;4958467;29;20499;-67
2022/02/07 16:33:47;;;;;;;8.47;2.17;;;5.40;99.90;;;;;;4958362;29;20797;-67
2022/02/07 16:36:16;;;;;;;5.87;2.13;;;5.40;99.90;;;;;;4957993;29;20947;-67
2022/02/07 16:38:44;;;;;;;9.53;3.00;;;5.30;99.90;;;;;;4969095;29;20455;-66
2022/02/07 16:41:12;;;;;;;7.60;2.33;;;5.30;99.90;;;;;;4969826;29;20476;-67
2022/02/07 16:43:41;;;;;;;8.33;2.57;;;5.20;99.90;;;;;;4960372;28;20506;-66
2022/02/07 16:46:27;;;;;;;11.30;2.87;;;5.10;99.90;;;;;;4958651;29;20958;-66
2022/02/07 16:48:54;;;;;;;5.97;2.37;;;5.00;99.90;;;;;;4957585;29;20464;-66
2022/02/07 16:51:22;;;;;;;3.10;2.07;;;5.00;99.90;;;;;;4958809;29;20475;-67
2022/02/07 16:53:49;;;;;;;9.33;2.30;;;4.90;99.90;;;;;;4957847;29;20464;-66
2022/02/07 16:56:16;;;;;;;11.83;2.43;;;4.80;99.90;;;;;;4957541;29;20464;-68
2022/02/07 16:58:44;;;;;;;8.20;2.90;;;4.80;99.90;;;;;;4956883;29;20456;-67
2022/02/07 17:01:11;;;;;;;8.23;2.23;;;4.80;99.90;;;;;;4956839;29;20498;-67
2022/02/07 17:03:40;;;;;;;8.63;2.00;;;4.80;99.90;;;;;;4958218;29;20464;-67
2022/02/07 17:06:07;;;;;;;3.30;1.90;;;4.80;99.90;;;;;;4958199;29;20515;-68
2022/02/07 17:08:35;;;;;;;5.97;3.30;;;4.70;99.90;;;;;;4957588;29;20492;-67
2022/02/07 17:11:04;;;;;;;6.67;2.47;;;4.70;99.90;;;;;;4958781;29;20480;-68
2022/02/07 17:13:32;;;;;;;7.37;3.20;;;4.70;99.90;;;;;;4957878;28;20487;-67
2022/02/07 17:15:59;;;;;;;8.50;3.47;;;4.70;99.90;;;;;;4958947;28;20465;-67
2022/02/07 17:18:26;;;;;;;9.70;3.30;;;4.70;99.90;;;;;;4958917;29;20955;-68
2022/02/07 17:20:53;;;;;;;5.63;3.83;;;4.70;99.90;;;;;;4958911;29;20564;-66
2022/02/07 17:23:21;;;;;;;10.10;3.40;;;4.70;99.90;;;;;;4957920;28;20460;-67
2022/02/07 17:25:49;;;;;;;5.87;2.90;;;4.60;99.90;;;;;;4957767;29;20488;-68
2022/02/07 17:28:16;;;;;;;4.53;2.03;;;4.60;99.90;;;;;;4959544;29;20836;-65
2022/02/07 17:30:45;;;;;;;9.37;2.83;;;4.60;99.90;;;;;;4959973;29;20560;-66
2022/02/07 17:33:12;;;;;;;5.97;2.23;;;4.60;99.90;;;;;;4957648;29;20456;-66
2022/02/07 17:35:40;;;;;;;9.90;3.57;;;4.70;99.90;;;;;;4958263;29;20871;-66
2022/02/07 17:38:06;;;;;;;7.67;2.43;;;4.70;99.90;;;;;;4957510;29;20451;-66
2022/02/07 17:40:34;;;;;;;6.70;2.30;;;4.60;99.90;;;;;;4963603;28;20464;-65
2022/02/07 17:43:02;;;;;;;8.30;3.27;;;4.70;99.90;;;;;;4967514;29;20532;-66
2022/02/07 17:45:31;;;;;;;8.90;2.20;;;4.70;99.90;;;;;;4959765;29;20460;-67
2022/02/07 17:47:57;;;;;;;5.60;2.50;;;4.70;99.90;;;;;;4957148;29;21009;-66
2022/02/07 17:50:24;;;;;;;5.60;2.73;;;4.70;99.90;;;;;;4956797;29;20463;-66
2022/02/07 17:52:52;;;;;;;6.20;2.37;;;4.70;99.90;;;;;;4956433;29;20981;-66
2022/02/07 17:55:19;;;;;;;7.40;2.80;;;4.70;99.90;;;;;;4956360;29;20954;-66
2022/02/07 17:57:47;;;;;;;7.63;2.00;;;4.70;99.90;;;;;;4956334;29;20459;-66
2022/02/07 18:00:16;;;;;;;5.97;2.73;;;4.70;99.90;;;;;;4956414;29;20451;-66
2022/02/07 18:02:43;;;;;;;8.40;2.53;;;4.60;99.90;;;;;;4957034;29;20518;-65
2022/02/07 18:05:15;;;;;;;8.17;2.80;;;4.60;99.90;;;;;;4956250;29;20943;-65
2022/02/07 18:07:42;;;;;;;7.27;2.60;;;4.60;99.90;;;;;;4956532;29;20440;-65
2022/02/07 18:10:10;;;;;;;6.40;2.17;;;4.60;99.90;;;;;;4957427;29;20457;-67
2022/02/07 18:12:37;;;;;;;4.80;2.47;;;4.60;99.90;;;;;;4956847;28;20481;-66
2022/02/07 18:15:04;;;;;;;10.23;2.43;;;4.50;99.90;;;;;;4956331;28;20460;-66
2022/02/07 18:17:33;;;;;;;4.70;2.27;;;4.50;99.90;;;;;;4955872;28;20467;-66
2022/02/07 18:20:10;;;;;;;5.33;2.50;;;4.50;99.90;;;;;;4956512;29;20456;-66
2022/02/07 18:22:44;;;;;;;4.33;2.60;;;4.50;99.90;;;;;;4957154;29;20483;-65
2022/02/07 18:25:12;;;;;;;7.50;2.40;;;4.50;99.90;;;;;;4955986;28;20444;-66
2022/02/07 18:27:39;;;;;;;7.20;3.37;;;4.50;99.90;;;;;;4956858;28;20462;-65
2022/02/07 18:30:10;;;;;;;7.53;2.60;;;4.50;99.90;;;;;;4956751;29;20461;-66
2022/02/07 18:32:38;;;;;;;5.73;3.03;;;4.50;99.90;;;;;;4956501;29;20498;-65
2022/02/07 18:35:05;;;;;;;8.73;3.10;;;4.60;99.90;;;;;;4960324;29;20452;-66
2022/02/07 18:37:32;;;;;;;5.37;2.67;;;4.60;99.90;;;;;;4968391;28;20465;-65
2022/02/07 18:39:59;;;;;;;6.17;3.23;;;4.60;99.90;;;;;;4957317;29;20452;-66
2022/02/07 18:42:34;;;;;;;5.90;2.80;;;4.60;99.90;;;;;;4955764;29;20475;-67
2022/02/07 18:45:05;;;;;;;7.20;3.47;;;4.60;99.90;;;;;;4956001;28;20451;-66